Time;durP1;ratioP1;P1;durP2;ratioP2;P2;SDS_P1;SDS_P2;PMS_P1;PMS_P2;Temp;Humidity;BMP_temperature;BMP_pressure;BME280_temperature;BME280_humidity;BME280_pressure;Samples;Min_cycle;Max_cycle;Signal;HPM_P1;HPM_P2
2021/07/09 00:02:18;;;;;;;14.50;11.38;;;16.70;99.90;;;;;;5034087;28;20028;-72
2021/07/09 00:04:43;;;;;;;15.65;12.40;;;16.60;99.90;;;;;;5033010;28;20030;-71
2021/07/09 00:07:09;;;;;;;15.07;11.48;;;16.60;99.90;;;;;;5033417;28;20068;-71
2021/07/09 00:09:34;;;;;;;18.02;12.20;;;16.60;99.90;;;;;;5033949;28;20025;-71
2021/07/09 00:12:01;;;;;;;18.02;11.55;;;16.50;99.90;;;;;;5032915;28;20026;-72
2021/07/09 00:14:30;;;;;;;15.15;11.02;;;16.50;99.90;;;;;;5033862;28;20155;-71
2021/07/09 00:16:56;;;;;;;15.70;12.82;;;16.50;99.90;;;;;;5033250;28;20532;-72
2021/07/09 00:19:21;;;;;;;12.48;11.15;;;16.40;99.90;;;;;;5033265;28;20112;-72
2021/07/09 00:21:50;;;;;;;13.80;11.40;;;16.40;99.90;;;;;;5033160;28;20487;-72
2021/07/09 00:24:17;;;;;;;16.02;12.07;;;16.40;99.90;;;;;;5033573;28;20042;-71
2021/07/09 00:26:42;;;;;;;13.38;11.00;;;16.30;99.90;;;;;;5032637;28;20465;-71
2021/07/09 00:29:08;;;;;;;12.88;10.70;;;16.30;99.90;;;;;;5033755;28;20033;-71
2021/07/09 00:31:34;;;;;;;10.98;9.55;;;16.30;99.90;;;;;;5033006;28;20465;-71
2021/07/09 00:34:03;;;;;;;12.63;10.50;;;16.20;99.90;;;;;;5033115;28;20033;-72
2021/07/09 00:36:29;;;;;;;11.27;10.07;;;16.20;99.90;;;;;;5033516;28;20033;-72
2021/07/09 00:38:57;;;;;;;10.43;9.07;;;16.10;99.90;;;;;;5032412;28;20022;-70
2021/07/09 00:41:23;;;;;;;19.52;12.48;;;16.10;99.90;;;;;;5033184;28;20770;-72
2021/07/09 00:43:49;;;;;;;15.43;11.15;;;16.00;99.90;;;;;;5033150;28;20021;-71
2021/07/09 00:46:15;;;;;;;15.77;11.93;;;16.00;99.90;;;;;;5033103;28;20105;-71
2021/07/09 00:48:40;;;;;;;17.42;12.75;;;16.00;99.90;;;;;;5034024;28;20044;-71
2021/07/09 00:51:09;;;;;;;13.43;11.90;;;15.90;99.90;;;;;;5033883;28;20465;-70
2021/07/09 00:53:34;;;;;;;15.30;12.43;;;15.90;99.90;;;;;;5032550;28;20470;-72
2021/07/09 00:56:01;;;;;;;13.80;12.15;;;15.90;99.90;;;;;;5032363;28;20108;-71
2021/07/09 00:58:27;;;;;;;14.45;11.63;;;15.90;99.90;;;;;;5033456;28;20049;-71
2021/07/09 01:00:54;;;;;;;14.07;12.40;;;15.90;99.90;;;;;;5031748;28;20025;-72
2021/07/09 01:03:23;;;;;;;18.38;14.05;;;15.90;99.90;;;;;;5035063;28;20028;-71
2021/07/09 01:05:49;;;;;;;19.33;13.35;;;15.80;99.90;;;;;;5032460;28;20501;-71
2021/07/09 01:08:15;;;;;;;17.38;12.20;;;15.80;99.90;;;;;;5032069;28;20033;-71
2021/07/09 01:10:42;;;;;;;18.52;11.77;;;15.80;99.90;;;;;;5032536;28;20469;-71
2021/07/09 01:13:07;;;;;;;15.48;12.38;;;15.80;99.90;;;;;;5032702;28;20025;-71
2021/07/09 01:15:34;;;;;;;17.48;13.80;;;15.80;99.90;;;;;;5032138;28;20381;-71
2021/07/09 01:18:00;;;;;;;17.75;13.43;;;15.70;99.90;;;;;;5031241;28;20447;-71
2021/07/09 01:20:26;;;;;;;17.13;13.15;;;15.70;99.90;;;;;;5032668;28;20026;-71
2021/07/09 01:22:52;;;;;;;16.63;12.52;;;15.70;99.90;;;;;;5031426;28;20509;-71
2021/07/09 01:25:26;;;;;;;18.92;13.07;;;15.60;99.90;;;;;;5032566;28;20124;-71
2021/07/09 01:27:55;;;;;;;14.43;11.65;;;15.60;99.90;;;;;;5031618;28;20049;-72
2021/07/09 01:30:23;;;;;;;15.70;12.10;;;15.60;99.90;;;;;;5032215;28;20167;-71
2021/07/09 01:32:50;;;;;;;18.00;13.57;;;15.60;99.90;;;;;;5032259;28;20040;-72
2021/07/09 01:35:17;;;;;;;18.00;11.48;;;15.60;99.90;;;;;;5031644;28;20469;-71
2021/07/09 01:37:56;;;;;;;14.93;11.80;;;15.60;99.90;;;;;;5031974;28;20120;-71
2021/07/09 01:40:22;;;;;;;17.55;12.77;;;15.50;99.90;;;;;;5032044;28;20033;-71
2021/07/09 01:42:48;;;;;;;13.75;12.25;;;15.50;99.90;;;;;;5031708;28;20029;-71
2021/07/09 01:45:17;;;;;;;15.05;13.23;;;15.60;99.90;;;;;;5031800;28;20029;-71
2021/07/09 01:47:42;;;;;;;18.40;13.32;;;15.60;99.90;;;;;;5031824;28;20062;-71
2021/07/09 01:50:09;;;;;;;20.73;13.20;;;15.50;99.90;;;;;;5031703;28;20117;-70
2021/07/09 01:52:34;;;;;;;15.85;13.38;;;15.60;99.90;;;;;;5032033;28;20060;-70
2021/07/09 01:55:01;;;;;;;16.23;13.07;;;15.50;99.90;;;;;;5032127;28;20049;-70
2021/07/09 01:57:27;;;;;;;16.75;13.13;;;15.50;99.90;;;;;;5031209;28;20037;-71
2021/07/09 01:59:53;;;;;;;16.33;13.15;;;15.50;99.90;;;;;;5024580;28;20032;-71
2021/07/09 02:02:19;;;;;;;17.40;11.85;;;15.60;99.90;;;;;;5032001;28;20420;-72
2021/07/09 02:04:45;;;;;;;16.70;11.85;;;15.50;99.90;;;;;;5031091;28;20021;-70
2021/07/09 02:07:11;;;;;;;19.48;13.55;;;15.50;99.90;;;;;;5031615;28;20484;-70
2021/07/09 02:09:36;;;;;;;15.90;12.23;;;15.40;99.90;;;;;;5031978;28;20044;-70
2021/07/09 02:12:02;;;;;;;17.98;13.35;;;15.40;99.90;;;;;;5030956;28;20083;-72
2021/07/09 02:14:28;;;;;;;16.63;12.43;;;15.40;99.90;;;;;;5031890;28;20022;-70
2021/07/09 02:16:54;;;;;;;18.85;13.50;;;15.40;99.90;;;;;;5031011;28;20025;-71
2021/07/09 02:19:25;;;;;;;17.13;13.27;;;15.40;99.90;;;;;;5031802;28;20116;-71
2021/07/09 02:21:53;;;;;;;20.00;13.75;;;15.40;99.90;;;;;;5031879;28;20065;-70
2021/07/09 02:24:18;;;;;;;19.33;14.10;;;15.40;99.90;;;;;;5031187;28;20025;-71
2021/07/09 02:26:44;;;;;;;21.50;13.50;;;15.40;99.90;;;;;;5031388;28;20044;-71
2021/07/09 02:29:09;;;;;;;18.23;13.75;;;15.30;99.90;;;;;;5033791;28;20029;-71
2021/07/09 02:31:38;;;;;;;22.48;15.05;;;15.30;99.90;;;;;;5035053;28;20021;-72
2021/07/09 02:34:03;;;;;;;18.65;13.15;;;15.30;99.90;;;;;;5035040;28;20037;-71
2021/07/09 02:36:29;;;;;;;16.52;13.05;;;15.30;99.90;;;;;;5035664;28;20025;-71
2021/07/09 02:38:54;;;;;;;19.08;13.27;;;15.30;99.90;;;;;;5034995;28;20029;-71
2021/07/09 02:41:20;;;;;;;18.15;14.20;;;15.30;99.90;;;;;;5035291;28;20025;-71
2021/07/09 02:43:46;;;;;;;20.45;13.82;;;15.30;99.90;;;;;;5035071;28;20476;-71
2021/07/09 02:46:12;;;;;;;22.52;15.02;;;15.30;99.90;;;;;;5034750;28;20116;-71
2021/07/09 02:48:37;;;;;;;20.90;15.27;;;15.30;99.90;;;;;;5035281;28;20167;-71
2021/07/09 02:51:03;;;;;;;23.73;16.20;;;15.30;99.90;;;;;;5035232;28;20021;-70
2021/07/09 02:53:28;;;;;;;23.55;14.95;;;15.30;99.90;;;;;;5034940;28;20469;-71
2021/07/09 02:55:55;;;;;;;25.13;16.33;;;15.30;99.90;;;;;;5034790;28;20476;-71
2021/07/09 02:58:21;;;;;;;24.50;16.30;;;15.20;99.90;;;;;;5035077;28;20401;-71
2021/07/09 03:00:46;;;;;;;24.15;15.13;;;15.30;99.90;;;;;;5034377;28;20024;-71
2021/07/09 03:03:12;;;;;;;24.40;14.45;;;15.20;99.90;;;;;;5034801;28;20030;-72
2021/07/09 03:05:37;;;;;;;23.65;15.00;;;15.20;99.90;;;;;;5035309;28;20104;-71
2021/07/09 03:08:04;;;;;;;21.15;14.48;;;15.20;99.90;;;;;;5034167;28;20443;-71
2021/07/09 03:10:29;;;;;;;17.73;14.10;;;15.20;99.90;;;;;;5035432;28;20014;-71
2021/07/09 03:12:55;;;;;;;16.92;13.25;;;15.20;99.90;;;;;;5034796;28;20129;-71
2021/07/09 03:15:20;;;;;;;14.43;12.10;;;15.20;99.90;;;;;;5034205;28;20377;-72
2021/07/09 03:17:46;;;;;;;17.23;13.23;;;15.20;99.90;;;;;;5034794;28;20524;-72
2021/07/09 03:20:12;;;;;;;16.08;13.05;;;15.10;99.90;;;;;;5034658;28;20080;-71
2021/07/09 03:22:38;;;;;;;16.92;13.52;;;15.10;99.90;;;;;;5034574;28;20017;-71
2021/07/09 03:25:06;;;;;;;18.65;14.13;;;15.10;99.90;;;;;;5034373;28;20033;-71
2021/07/09 03:27:32;;;;;;;22.08;15.13;;;15.10;99.90;;;;;;5033991;28;20033;-71
2021/07/09 03:29:59;;;;;;;25.35;14.45;;;15.10;99.90;;;;;;5036063;28;20492;-72
2021/07/09 03:32:25;;;;;;;21.30;13.65;;;15.10;99.90;;;;;;5034769;28;20049;-71
2021/07/09 03:34:50;;;;;;;21.92;14.55;;;15.00;99.90;;;;;;5034053;28;20057;-72
2021/07/09 03:37:16;;;;;;;19.25;14.00;;;15.10;99.90;;;;;;5034190;28;20033;-72
2021/07/09 03:39:42;;;;;;;18.55;13.48;;;15.00;99.90;;;;;;5033744;28;20018;-71
2021/07/09 03:42:08;;;;;;;18.92;14.00;;;15.00;99.90;;;;;;5034586;28;20037;-72
2021/07/09 03:44:33;;;;;;;18.50;13.95;;;15.00;99.90;;;;;;5034453;28;20010;-71
2021/07/09 03:46:59;;;;;;;18.05;14.10;;;15.00;99.90;;;;;;5034428;28;20057;-71
2021/07/09 03:49:25;;;;;;;17.58;13.27;;;15.00;99.90;;;;;;5033815;28;20091;-71
2021/07/09 03:51:51;;;;;;;18.38;14.02;;;15.00;99.90;;;;;;5033834;28;20138;-71
2021/07/09 03:54:17;;;;;;;21.35;15.07;;;15.00;99.90;;;;;;5034042;28;20112;-72
2021/07/09 03:56:42;;;;;;;20.52;14.55;;;15.00;99.90;;;;;;5033463;28;20025;-71
2021/07/09 03:59:08;;;;;;;20.25;14.48;;;15.00;99.90;;;;;;5033859;28;20056;-71
2021/07/09 04:01:34;;;;;;;23.17;15.60;;;15.00;99.90;;;;;;5034155;28;20109;-71
2021/07/09 04:03:59;;;;;;;22.50;14.27;;;15.00;99.90;;;;;;5033256;28;20025;-71
2021/07/09 04:06:25;;;;;;;20.67;15.10;;;15.00;99.90;;;;;;5033894;28;20034;-71
2021/07/09 04:08:51;;;;;;;18.40;14.15;;;15.00;99.90;;;;;;5033541;28;20026;-72
2021/07/09 04:11:16;;;;;;;22.40;15.05;;;16.00;99.90;;;;;;5033234;28;20041;-71
2021/07/09 04:13:42;;;;;;;25.23;15.95;;;15.10;99.90;;;;;;5033520;28;20029;-72
2021/07/09 04:16:07;;;;;;;19.92;13.98;;;15.20;99.90;;;;;;5033811;28;20060;-71
2021/07/09 04:18:34;;;;;;;24.83;14.70;;;15.20;99.90;;;;;;5033098;28;20056;-71
2021/07/09 04:21:00;;;;;;;22.85;14.77;;;15.20;99.90;;;;;;5033579;28;20040;-71
2021/07/09 04:23:26;;;;;;;19.67;14.15;;;15.20;99.90;;;;;;5033705;28;20048;-71
2021/07/09 04:25:51;;;;;;;23.08;14.45;;;15.30;99.90;;;;;;5026198;28;20013;-71
2021/07/09 04:28:17;;;;;;;18.73;14.10;;;15.30;99.90;;;;;;5028836;28;20100;-71
2021/07/09 04:30:42;;;;;;;18.50;13.98;;;15.40;99.90;;;;;;5032729;28;20029;-71
2021/07/09 04:33:08;;;;;;;19.13;14.45;;;15.40;99.90;;;;;;5033402;28;20017;-71
2021/07/09 04:35:34;;;;;;;17.75;13.57;;;15.50;99.90;;;;;;5033443;28;20048;-71
2021/07/09 04:37:59;;;;;;;22.48;14.23;;;15.50;99.90;;;;;;5032798;28;20060;-71
2021/07/09 04:40:25;;;;;;;16.70;13.00;;;15.60;99.90;;;;;;5033256;28;20021;-71
2021/07/09 04:42:51;;;;;;;16.20;12.40;;;15.60;99.90;;;;;;5032856;28;20021;-71
2021/07/09 04:45:16;;;;;;;17.50;13.15;;;15.70;99.90;;;;;;5033102;28;20033;-71
2021/07/09 04:47:42;;;;;;;19.27;13.55;;;15.80;99.90;;;;;;5026288;28;22006;-71
2021/07/09 04:50:09;;;;;;;18.42;13.05;;;15.80;99.90;;;;;;5032945;28;20060;-72
2021/07/09 04:52:34;;;;;;;16.42;12.35;;;15.90;99.90;;;;;;5032524;28;20135;-71
2021/07/09 04:55:00;;;;;;;18.08;13.88;;;15.90;99.90;;;;;;5028457;28;20500;-70
2021/07/09 04:57:26;;;;;;;18.33;13.80;;;16.00;99.90;;;;;;5030636;28;20037;-71
2021/07/09 04:59:52;;;;;;;20.60;12.98;;;16.00;99.90;;;;;;5032032;28;20060;-72
2021/07/09 05:02:18;;;;;;;21.77;14.07;;;16.10;99.90;;;;;;5032656;28;20052;-70
2021/07/09 05:04:46;;;;;;;22.30;14.35;;;16.20;99.90;;;;;;5032464;28;20034;-72
2021/07/09 05:07:12;;;;;;;20.83;14.35;;;16.20;99.90;;;;;;5030477;28;20029;-71
2021/07/09 05:09:37;;;;;;;16.23;13.07;;;16.30;99.90;;;;;;5027758;28;20025;-71
2021/07/09 05:12:03;;;;;;;15.95;12.27;;;16.40;99.90;;;;;;5023361;28;20063;-72
2021/07/09 05:14:29;;;;;;;20.15;12.68;;;16.50;99.90;;;;;;5015874;28;20030;-70
2021/07/09 05:16:55;;;;;;;18.77;12.65;;;16.50;99.90;;;;;;5017471;28;20029;-73
2021/07/09 05:19:21;;;;;;;17.00;12.20;;;16.60;99.90;;;;;;5015058;28;20033;-71
2021/07/09 05:21:46;;;;;;;18.83;12.68;;;16.70;99.90;;;;;;5015755;28;20555;-72
2021/07/09 05:24:13;;;;;;;19.77;14.45;;;16.70;99.90;;;;;;5020255;28;20381;-71
2021/07/09 05:26:39;;;;;;;17.92;12.02;;;16.80;99.90;;;;;;5014839;28;20058;-72
2021/07/09 05:29:05;;;;;;;17.27;13.13;;;16.90;99.90;;;;;;5013153;28;20033;-71
2021/07/09 05:31:34;;;;;;;19.45;12.73;;;16.90;99.90;;;;;;5014567;28;20029;-71
2021/07/09 05:34:00;;;;;;;16.10;12.10;;;16.90;99.90;;;;;;5013840;28;20030;-71
2021/07/09 05:36:26;;;;;;;16.77;12.77;;;16.90;99.90;;;;;;5012971;28;20025;-72
2021/07/09 05:38:51;;;;;;;15.73;11.55;;;17.00;99.90;;;;;;5012887;28;20022;-71
2021/07/09 05:41:17;;;;;;;15.43;11.63;;;17.00;99.90;;;;;;5011823;28;20036;-72
2021/07/09 05:43:43;;;;;;;19.05;12.25;;;17.10;99.90;;;;;;5014360;28;20123;-72
2021/07/09 05:46:09;;;;;;;17.90;11.27;;;17.20;99.90;;;;;;5016299;28;20026;-72
2021/07/09 05:48:35;;;;;;;15.98;12.52;;;17.20;99.90;;;;;;5023373;28;20112;-71
2021/07/09 05:51:00;;;;;;;17.00;13.00;;;17.20;99.90;;;;;;5031135;28;20113;-72
2021/07/09 05:53:26;;;;;;;16.35;11.57;;;17.20;99.90;;;;;;5031727;28;20100;-71
2021/07/09 05:55:51;;;;;;;16.55;11.63;;;17.30;99.90;;;;;;5030820;28;20028;-72
2021/07/09 05:58:18;;;;;;;19.27;12.15;;;17.40;99.90;;;;;;5031247;28;20056;-71
2021/07/09 06:00:44;;;;;;;15.60;12.20;;;17.40;99.90;;;;;;5031317;28;20110;-73
2021/07/09 06:03:09;;;;;;;19.63;12.57;;;17.50;99.90;;;;;;5030560;28;20033;-72
2021/07/09 06:05:35;;;;;;;18.98;13.07;;;17.60;99.90;;;;;;5031546;28;20025;-72
2021/07/09 06:08:05;;;;;;;18.80;13.15;;;17.60;99.90;;;;;;5031266;28;20385;-72
2021/07/09 06:10:32;;;;;;;20.05;13.10;;;17.60;99.90;;;;;;5030783;28;20068;-71
2021/07/09 06:12:58;;;;;;;18.15;13.73;;;17.70;99.90;;;;;;5031478;28;20029;-72
2021/07/09 06:15:24;;;;;;;22.25;14.07;;;17.70;99.90;;;;;;5031366;28;20487;-71
2021/07/09 06:17:50;;;;;;;22.10;15.10;;;17.80;99.90;;;;;;5028070;28;20801;-71
2021/07/09 06:20:16;;;;;;;24.48;14.43;;;17.80;99.90;;;;;;5033568;28;20049;-72
2021/07/09 06:22:42;;;;;;;24.48;15.63;;;17.80;99.90;;;;;;5031505;28;20049;-72
2021/07/09 06:25:08;;;;;;;21.00;15.13;;;17.90;99.90;;;;;;5030617;28;20033;-71
2021/07/09 06:27:33;;;;;;;21.95;16.13;;;17.90;99.90;;;;;;5031369;28;20133;-71
2021/07/09 06:29:59;;;;;;;29.77;15.70;;;17.90;99.90;;;;;;5030981;28;20101;-72
2021/07/09 06:32:25;;;;;;;31.63;17.45;;;18.00;99.90;;;;;;5030369;28;20052;-72
2021/07/09 06:34:50;;;;;;;25.85;17.15;;;18.10;99.90;;;;;;5030834;28;20061;-72
2021/07/09 06:37:16;;;;;;;25.95;17.35;;;18.20;99.90;;;;;;5030543;28;20026;-72
2021/07/09 06:39:42;;;;;;;26.20;16.60;;;18.20;99.90;;;;;;5030537;28;20021;-71
2021/07/09 06:42:07;;;;;;;23.25;15.80;;;18.20;99.90;;;;;;5031043;28;20029;-73
2021/07/09 06:44:33;;;;;;;24.63;15.40;;;18.20;99.90;;;;;;5029132;28;20136;-75
2021/07/09 06:46:58;;;;;;;24.02;15.45;;;18.20;99.90;;;;;;5029401;28;20033;-74
2021/07/09 06:49:24;;;;;;;25.80;16.75;;;18.30;99.90;;;;;;5030727;28;20072;-76
2021/07/09 06:51:49;;;;;;;27.00;16.38;;;18.40;99.90;;;;;;5030414;28;20041;-73
2021/07/09 06:54:15;;;;;;;26.17;17.67;;;18.40;99.90;;;;;;5032176;28;20052;-75
2021/07/09 06:56:41;;;;;;;22.95;15.15;;;18.40;99.90;;;;;;5030603;28;20042;-76
2021/07/09 06:59:06;;;;;;;22.17;15.07;;;18.40;99.90;;;;;;5026441;28;20056;-74
2021/07/09 07:01:32;;;;;;;25.02;15.15;;;18.40;99.90;;;;;;5029592;28;20057;-73
2021/07/09 07:03:57;;;;;;;19.35;13.13;;;18.40;99.90;;;;;;5028557;28;20053;-73
2021/07/09 07:06:23;;;;;;;16.63;12.85;;;18.40;99.90;;;;;;5029849;28;20028;-75
2021/07/09 07:08:48;;;;;;;19.60;12.52;;;18.40;99.90;;;;;;5030122;28;20388;-75
2021/07/09 07:11:14;;;;;;;17.95;11.35;;;18.50;99.90;;;;;;5031224;28;20481;-75
2021/07/09 07:13:39;;;;;;;16.83;11.77;;;18.50;99.90;;;;;;5030846;28;20048;-75
2021/07/09 07:16:07;;;;;;;15.85;10.73;;;18.50;99.90;;;;;;5032928;28;20013;-75
2021/07/09 07:18:33;;;;;;;20.92;12.60;;;18.50;99.90;;;;;;5022719;28;20034;-74
2021/07/09 07:20:58;;;;;;;16.48;11.48;;;18.50;99.90;;;;;;5034053;28;20076;-74
2021/07/09 07:23:24;;;;;;;15.85;10.50;;;18.60;99.90;;;;;;5028752;28;20040;-75
2021/07/09 07:25:50;;;;;;;13.93;10.95;;;18.60;99.90;;;;;;5043612;28;20024;-74
2021/07/09 07:28:16;;;;;;;18.08;11.57;;;18.70;99.90;;;;;;5028571;28;20060;-74
2021/07/09 07:30:42;;;;;;;21.45;12.23;;;18.70;99.90;;;;;;5049005;28;20533;-75
2021/07/09 07:33:09;;;;;;;21.52;12.70;;;18.80;99.90;;;;;;5048976;28;20116;-75
2021/07/09 07:35:36;;;;;;;17.67;11.88;;;18.80;99.90;;;;;;5042386;28;20025;-74
2021/07/09 07:38:03;;;;;;;15.93;11.40;;;18.90;99.90;;;;;;5042586;28;20017;-75
2021/07/09 07:40:28;;;;;;;20.83;12.32;;;18.90;99.90;;;;;;5042060;28;20487;-76
2021/07/09 07:42:54;;;;;;;13.95;12.35;;;19.00;99.90;;;;;;5041073;28;20026;-76
2021/07/09 07:45:19;;;;;;;16.90;12.73;;;19.00;99.90;;;;;;5050197;28;20021;-74
2021/07/09 07:47:45;;;;;;;21.13;14.13;;;19.10;99.90;;;;;;5045711;28;20041;-75
2021/07/09 07:50:13;;;;;;;22.40;15.77;;;19.20;99.90;;;;;;5048803;28;20376;-75
2021/07/09 07:52:39;;;;;;;28.27;16.52;;;19.20;99.90;;;;;;5037828;28;20029;-74
2021/07/09 07:55:05;;;;;;;24.40;17.60;;;19.30;99.90;;;;;;5043447;28;20031;-73
2021/07/09 07:57:31;;;;;;;24.20;17.35;;;19.50;99.90;;;;;;5049325;28;20033;-75
2021/07/09 07:59:56;;;;;;;26.15;17.25;;;19.60;99.90;;;;;;5047586;28;20502;-74
2021/07/09 08:02:22;;;;;;;21.13;16.00;;;19.70;99.90;;;;;;5048880;28;20484;-73
2021/07/09 08:04:47;;;;;;;22.73;16.40;;;19.80;99.90;;;;;;5051243;28;20478;-75
2021/07/09 08:07:14;;;;;;;20.08;15.85;;;19.90;99.90;;;;;;5050586;28;20508;-73
2021/07/09 08:09:40;;;;;;;20.95;15.45;;;19.90;99.90;;;;;;5047870;28;20068;-74
2021/07/09 08:12:07;;;;;;;20.52;14.45;;;20.00;99.90;;;;;;5048611;28;20017;-74
2021/07/09 08:14:33;;;;;;;22.63;16.05;;;20.00;99.90;;;;;;5048108;28;20036;-71
2021/07/09 08:16:59;;;;;;;18.95;14.90;;;20.20;99.90;;;;;;5045255;28;20035;-74
2021/07/09 08:19:24;;;;;;;22.27;15.27;;;20.30;99.90;;;;;;5042706;28;20107;-73
2021/07/09 08:21:50;;;;;;;18.85;14.82;;;20.30;99.90;;;;;;5043982;28;20043;-74
2021/07/09 08:24:17;;;;;;;21.85;15.15;;;20.50;99.90;;;;;;5047571;28;20025;-74
2021/07/09 08:26:43;;;;;;;17.92;14.30;;;20.50;99.90;;;;;;5043727;28;20100;-74
2021/07/09 08:29:08;;;;;;;21.17;14.98;;;20.60;99.90;;;;;;5048528;28;20120;-74
2021/07/09 08:31:34;;;;;;;18.42;14.75;;;20.60;99.90;;;;;;5038070;28;20036;-73
2021/07/09 08:34:00;;;;;;;21.65;15.40;;;20.70;99.90;;;;;;5047467;28;20029;-77
2021/07/09 08:36:27;;;;;;;18.58;15.48;;;20.70;99.90;;;;;;5046766;28;20021;-76
2021/07/09 08:38:53;;;;;;;20.02;13.98;;;20.80;99.90;;;;;;5046456;28;20473;-76
2021/07/09 08:41:20;;;;;;;19.67;14.20;;;20.70;99.90;;;;;;5045799;28;20543;-75
2021/07/09 08:43:46;;;;;;;17.60;13.00;;;20.60;99.90;;;;;;5032015;28;20171;-74
2021/07/09 08:46:13;;;;;;;20.40;11.27;;;20.50;99.90;;;;;;5018017;28;20578;-75
2021/07/09 08:48:40;;;;;;;13.52;10.93;;;20.40;99.90;;;;;;5026230;28;20366;-75
2021/07/09 08:51:06;;;;;;;12.73;10.10;;;20.30;99.90;;;;;;5023594;28;20018;-71
2021/07/09 08:53:31;;;;;;;14.32;10.38;;;20.30;99.90;;;;;;5032205;28;20035;-76
2021/07/09 08:55:57;;;;;;;17.70;12.15;;;20.40;99.90;;;;;;5032966;28;20018;-75
2021/07/09 08:58:23;;;;;;;18.92;13.40;;;20.50;99.90;;;;;;5032536;28;20534;-75
2021/07/09 09:00:48;;;;;;;18.20;13.27;;;20.60;99.90;;;;;;5032525;28;20412;-75
2021/07/09 09:03:20;;;;;;;16.58;12.25;;;20.70;99.90;;;;;;5032760;28;20032;-76
2021/07/09 09:05:47;;;;;;;19.30;12.23;;;20.90;99.90;;;;;;5032208;28;20017;-76
2021/07/09 09:08:15;;;;;;;19.98;12.75;;;21.00;99.90;;;;;;5029840;28;20117;-73
2021/07/09 09:10:42;;;;;;;15.98;12.55;;;21.20;99.90;;;;;;5032859;28;20020;-77
2021/07/09 09:13:10;;;;;;;21.73;12.43;;;21.20;99.90;;;;;;5032029;28;20469;-74
2021/07/09 09:15:37;;;;;;;18.48;13.40;;;21.20;99.90;;;;;;5032303;28;20024;-73
2021/07/09 09:18:25;;;;;;;12.45;11.20;;;21.10;99.90;;;;;;5032662;28;20026;-74
2021/07/09 09:21:20;;;;;;;19.23;11.50;;;21.10;99.90;;;;;;5031582;28;20014;-74
2021/07/09 09:23:51;;;;;;;12.98;11.68;;;21.20;99.90;;;;;;5032630;28;20059;-76
2021/07/09 09:26:38;;;;;;;16.88;11.70;;;21.10;99.90;;;;;;5020529;28;20029;-74
2021/07/09 09:29:04;;;;;;;18.40;12.50;;;21.20;99.90;;;;;;5031972;28;20033;-77
2021/07/09 09:31:35;;;;;;;18.40;12.18;;;21.30;99.90;;;;;;5032562;28;20037;-75
2021/07/09 09:34:04;;;;;;;13.05;10.77;;;21.50;99.90;;;;;;5030537;28;20033;-76
2021/07/09 09:36:31;;;;;;;16.90;11.50;;;21.50;99.90;;;;;;5025540;28;20021;-76
2021/07/09 09:38:59;;;;;;;15.70;11.52;;;21.50;99.90;;;;;;5033076;28;20036;-76
2021/07/09 09:41:25;;;;;;;16.52;11.93;;;21.40;99.90;;;;;;5036538;28;20032;-71
2021/07/09 09:43:51;;;;;;;14.10;12.48;;;21.40;99.90;;;;;;5047177;28;20107;-75
2021/07/09 09:46:26;;;;;;;16.48;12.25;;;21.30;99.90;;;;;;5044844;28;20037;-76
2021/07/09 09:48:52;;;;;;;14.10;11.20;;;21.20;99.90;;;;;;5034922;28;20037;-74
2021/07/09 09:51:34;;;;;;;14.55;12.13;;;21.10;99.90;;;;;;5037142;28;20028;-75
2021/07/09 09:54:05;;;;;;;14.55;12.60;;;21.00;99.90;;;;;;5041728;28;20075;-74
2021/07/09 09:56:47;;;;;;;16.70;12.10;;;21.00;99.90;;;;;;5046792;28;20115;-74
2021/07/09 09:59:22;;;;;;;13.38;11.98;;;21.10;99.90;;;;;;5046095;28;20076;-75
2021/07/09 10:01:52;;;;;;;10.55;9.50;;;21.20;99.90;;;;;;5041041;28;20021;-74
2021/07/09 10:04:18;;;;;;;15.57;10.07;;;21.10;99.90;;;;;;5027049;28;20512;-75
2021/07/09 10:06:45;;;;;;;14.48;10.23;;;21.30;99.90;;;;;;5034044;28;20057;-75
2021/07/09 10:09:12;;;;;;;9.95;8.95;;;21.40;99.90;;;;;;5031261;28;20042;-74
2021/07/09 10:11:39;;;;;;;8.63;7.78;;;21.60;99.90;;;;;;5030734;28;20171;-75
2021/07/09 10:14:12;;;;;;;10.77;8.88;;;21.90;99.90;;;;;;5030703;28;20128;-75
2021/07/09 10:16:39;;;;;;;10.27;8.52;;;22.10;99.90;;;;;;5031454;28;20105;-75
2021/07/09 10:19:11;;;;;;;11.57;9.80;;;22.10;99.90;;;;;;5026890;28;20044;-73
2021/07/09 10:21:38;;;;;;;14.98;9.88;;;22.10;99.90;;;;;;5028743;28;20026;-73
2021/07/09 10:24:06;;;;;;;11.32;9.95;;;22.20;99.90;;;;;;5032875;28;20030;-74
2021/07/09 10:26:34;;;;;;;14.82;9.70;;;22.40;99.90;;;;;;5036975;28;20507;-74
2021/07/09 10:29:19;;;;;;;11.23;10.13;;;22.40;99.90;;;;;;5036503;28;20128;-73
2021/07/09 10:31:47;;;;;;;12.00;9.52;;;22.50;99.90;;;;;;5036169;28;20029;-74
2021/07/09 10:34:33;;;;;;;11.05;9.15;;;22.60;99.90;;;;;;5034387;28;20028;-73
2021/07/09 10:37:03;;;;;;;9.52;8.52;;;22.70;99.90;;;;;;5029720;28;20072;-73
2021/07/09 10:39:39;;;;;;;10.40;9.50;;;22.70;99.90;;;;;;5023091;28;20030;-73
2021/07/09 10:42:39;;;;;;;12.35;10.27;;;22.70;99.90;;;;;;5030868;28;20021;-73
2021/07/09 10:45:04;;;;;;;10.57;9.57;;;22.70;99.90;;;;;;5023341;28;20030;-73
2021/07/09 10:47:50;;;;;;;9.88;8.13;;;22.60;99.90;;;;;;5036676;28;20385;-73
2021/07/09 10:50:32;;;;;;;11.43;8.55;;;22.70;99.90;;;;;;5040407;28;20029;-74
2021/07/09 10:53:05;;;;;;;9.32;8.43;;;22.70;99.90;;;;;;5046055;28;20021;-73
2021/07/09 10:55:31;;;;;;;10.27;7.45;;;22.90;99.90;;;;;;5047355;28;20026;-74
2021/07/09 10:58:06;;;;;;;9.90;8.23;;;23.00;99.90;;;;;;5051807;28;20047;-74
2021/07/09 11:00:55;;;;;;;9.13;8.30;;;23.20;99.90;;;;;;5052268;28;20027;-74
2021/07/09 11:03:44;;;;;;;8.35;7.32;;;23.30;99.90;;;;;;5033781;28;20033;-74
2021/07/09 11:06:37;;;;;;;9.63;8.48;;;23.40;99.90;;;;;;5048573;28;20032;-74
2021/07/09 11:09:11;;;;;;;8.27;7.47;;;23.40;99.90;;;;;;5039507;28;20038;-73
2021/07/09 11:11:46;;;;;;;8.60;6.72;;;23.40;99.40;;;;;;5045308;28;20112;-74
2021/07/09 11:14:33;;;;;;;11.02;7.57;;;23.40;99.60;;;;;;5046400;28;20029;-72
2021/07/09 11:17:21;;;;;;;9.52;8.52;;;23.40;99.80;;;;;;5036025;28;20029;-72
2021/07/09 11:19:46;;;;;;;8.50;7.70;;;23.50;99.60;;;;;;5040504;28;20695;-73
2021/07/09 11:22:13;;;;;;;7.97;7.18;;;23.60;99.50;;;;;;5031466;28;20065;-73
2021/07/09 11:24:53;;;;;;;10.05;6.68;;;23.60;99.30;;;;;;5039117;28;20079;-73
2021/07/09 11:27:22;;;;;;;8.45;7.65;;;23.70;99.20;;;;;;5040104;28;20037;-73
2021/07/09 11:29:49;;;;;;;8.90;8.02;;;23.90;98.80;;;;;;5048360;28;20400;-73
2021/07/09 11:32:17;;;;;;;9.75;8.73;;;23.90;99.00;;;;;;5043031;28;20049;-73
2021/07/09 11:34:52;;;;;;;10.80;8.95;;;24.00;98.80;;;;;;5014124;28;20105;-73
2021/07/09 11:37:18;;;;;;;12.70;9.48;;;24.00;98.40;;;;;;5013898;28;20032;-73
2021/07/09 11:39:46;;;;;;;10.27;9.18;;;23.90;98.10;;;;;;5018912;28;20037;-73
2021/07/09 11:42:18;;;;;;;10.20;8.82;;;23.80;97.70;;;;;;5034382;28;20029;-73
2021/07/09 11:44:53;;;;;;;11.98;9.52;;;23.80;97.90;;;;;;5031528;28;20103;-73
2021/07/09 11:47:18;;;;;;;12.45;10.95;;;23.70;98.30;;;;;;5033565;28;20477;-73
2021/07/09 11:49:50;;;;;;;15.00;12.20;;;23.60;98.20;;;;;;5033835;28;20056;-73
2021/07/09 11:52:27;;;;;;;15.95;13.23;;;23.50;98.80;;;;;;5034053;28;20017;-73
2021/07/09 11:54:55;;;;;;;14.52;11.77;;;23.20;98.80;;;;;;5033267;28;20074;-73
2021/07/09 11:57:32;;;;;;;13.43;12.05;;;23.20;99.70;;;;;;5033939;28;20032;-74
2021/07/09 12:00:02;;;;;;;16.95;11.82;;;23.30;98.90;;;;;;5033681;28;20026;-74
2021/07/09 12:02:29;;;;;;;21.88;14.10;;;23.40;98.80;;;;;;5032519;28;20051;-73
2021/07/09 12:04:54;;;;;;;17.75;13.88;;;23.60;98.50;;;;;;5033721;28;20026;-73
2021/07/09 12:07:22;;;;;;;18.27;14.45;;;23.60;98.40;;;;;;5034041;28;20021;-72
2021/07/09 12:09:56;;;;;;;23.30;16.90;;;23.70;97.90;;;;;;5033051;28;20152;-74
2021/07/09 12:12:23;;;;;;;28.42;19.60;;;23.80;98.80;;;;;;5033793;28;20017;-73
2021/07/09 12:14:52;;;;;;;25.10;18.60;;;23.90;98.20;;;;;;5033056;28;20040;-72
2021/07/09 12:17:18;;;;;;;25.05;18.73;;;23.90;98.20;;;;;;5033713;28;20022;-73
2021/07/09 12:20:11;;;;;;;23.48;18.98;;;23.90;98.10;;;;;;5033564;28;20032;-74
2021/07/09 12:22:42;;;;;;;20.73;17.88;;;23.90;97.00;;;;;;5019518;28;20101;-73
2021/07/09 12:25:29;;;;;;;24.70;19.48;;;23.80;97.00;;;;;;5033668;28;20083;-72
2021/07/09 12:28:02;;;;;;;23.95;18.60;;;23.60;97.70;;;;;;5033394;28;20025;-72
2021/07/09 12:30:30;;;;;;;22.15;19.70;;;23.60;97.20;;;;;;5032616;28;20448;-73
2021/07/09 12:32:58;;;;;;;20.33;17.70;;;23.70;97.40;;;;;;5033326;28;20017;-73